Time;durP1;ratioP1;P1;durP2;ratioP2;P2;SDS_P1;SDS_P2;PMS_P1;PMS_P2;Temp;Humidity;BMP_temperature;BMP_pressure;BME280_temperature;BME280_humidity;BME280_pressure;Samples;Min_cycle;Max_cycle;Signal;HPM_P1;HPM_P2
2023/09/28 00:02:22;;;;;;;12.33;11.87;;;22.60;99.90;;;;;;5031654;28;20436;-73
2023/09/28 00:04:48;;;;;;;11.57;11.03;;;22.60;99.90;;;;;;5050842;28;20496;-73
2023/09/28 00:07:16;;;;;;;12.93;12.43;;;22.60;99.90;;;;;;5051504;28;20436;-74
2023/09/28 00:09:42;;;;;;;10.73;10.33;;;22.60;99.90;;;;;;5047036;28;20452;-73
2023/09/28 00:12:08;;;;;;;11.77;11.37;;;22.60;99.90;;;;;;5050675;28;20480;-74
2023/09/28 00:14:36;;;;;;;12.80;11.90;;;22.60;99.90;;;;;;5051092;28;20279;-72
2023/09/28 00:17:04;;;;;;;11.23;10.63;;;22.60;99.90;;;;;;5051537;28;20506;-74
2023/09/28 00:19:30;;;;;;;11.37;11.07;;;22.60;99.90;;;;;;5048944;28;20455;-74
2023/09/28 00:21:57;;;;;;;10.57;10.27;;;22.60;99.90;;;;;;5049051;28;20440;-74
2023/09/28 00:24:23;;;;;;;10.50;10.20;;;22.60;99.90;;;;;;5050896;28;20448;-73
2023/09/28 00:26:51;;;;;;;11.50;11.10;;;22.60;99.90;;;;;;5051326;28;20482;-74
2023/09/28 00:29:18;;;;;;;11.60;11.20;;;22.60;99.90;;;;;;5050917;28;20543;-72
2023/09/28 00:31:46;;;;;;;11.10;10.70;;;22.60;99.90;;;;;;5031147;28;20476;-74
2023/09/28 00:34:12;;;;;;;11.87;11.47;;;22.50;99.90;;;;;;5031363;28;20873;-74
2023/09/28 00:36:39;;;;;;;10.83;10.43;;;22.60;99.90;;;;;;5031411;28;20472;-73
2023/09/28 00:39:07;;;;;;;11.27;10.63;;;22.60;99.90;;;;;;5031359;28;20732;-73
2023/09/28 00:41:33;;;;;;;11.50;11.00;;;22.50;99.90;;;;;;5039822;28;20468;-74
2023/09/28 00:44:00;;;;;;;10.63;10.23;;;22.60;99.90;;;;;;5031180;28;20477;-73
2023/09/28 00:46:33;;;;;;;11.10;10.70;;;22.60;99.90;;;;;;5030966;28;20468;-74
2023/09/28 00:49:03;;;;;;;11.37;10.97;;;22.50;99.90;;;;;;5031190;28;20532;-74
2023/09/28 00:51:31;;;;;;;12.30;11.70;;;22.50;99.90;;;;;;5032079;28;20839;-72
2023/09/28 00:54:00;;;;;;;11.83;11.43;;;22.50;99.90;;;;;;5031110;28;20495;-73
2023/09/28 00:56:27;;;;;;;11.87;11.40;;;22.50;99.90;;;;;;5031201;28;20500;-73
2023/09/28 00:58:56;;;;;;;11.20;10.80;;;22.50;99.90;;;;;;5031166;28;20464;-73
2023/09/28 01:01:25;;;;;;;12.10;11.60;;;22.50;99.90;;;;;;5047294;28;20444;-73
2023/09/28 01:03:52;;;;;;;11.37;10.87;;;22.50;99.90;;;;;;5050983;28;20452;-73
2023/09/28 01:06:20;;;;;;;11.67;11.17;;;22.50;99.90;;;;;;5051702;28;20472;-73
2023/09/28 01:08:46;;;;;;;11.47;10.90;;;22.50;99.90;;;;;;5045558;28;20875;-73
2023/09/28 01:11:13;;;;;;;10.90;10.50;;;22.50;99.90;;;;;;5046800;28;20448;-73
2023/09/28 01:13:40;;;;;;;10.80;10.40;;;22.50;99.90;;;;;;5054346;28;20480;-72
2023/09/28 01:16:06;;;;;;;12.23;11.73;;;22.50;99.90;;;;;;5054160;28;20464;-72
2023/09/28 01:18:32;;;;;;;11.97;11.57;;;22.50;99.90;;;;;;5037336;28;20967;-74
2023/09/28 01:21:00;;;;;;;11.03;10.63;;;22.50;99.90;;;;;;5034226;28;20531;-73
2023/09/28 01:23:27;;;;;;;11.03;10.50;;;22.50;99.90;;;;;;5034237;28;20708;-71
2023/09/28 01:25:54;;;;;;;11.10;10.70;;;22.50;99.90;;;;;;5034143;28;20461;-73
2023/09/28 01:28:21;;;;;;;11.83;11.33;;;22.50;99.90;;;;;;5048661;28;20590;-73
2023/09/28 01:30:48;;;;;;;11.53;11.03;;;22.50;99.90;;;;;;5054020;28;20448;-74
2023/09/28 01:33:14;;;;;;;11.57;11.10;;;22.50;99.90;;;;;;5053979;28;20824;-73
2023/09/28 01:35:41;;;;;;;11.50;11.00;;;22.50;99.90;;;;;;5053875;28;20548;-73
2023/09/28 01:38:15;;;;;;;11.00;10.40;;;22.50;99.90;;;;;;5040972;28;20445;-73
2023/09/28 01:40:45;;;;;;;10.30;10.00;;;22.50;99.90;;;;;;5033974;28;20444;-74
2023/09/28 01:43:11;;;;;;;11.30;10.90;;;22.50;99.90;;;;;;5033850;28;20441;-73
2023/09/28 01:45:38;;;;;;;11.00;10.60;;;22.50;99.90;;;;;;5033778;28;20470;-73
2023/09/28 01:48:05;;;;;;;9.93;9.60;;;22.50;99.90;;;;;;5045648;28;20482;-72
2023/09/28 01:50:32;;;;;;;11.37;10.97;;;22.50;99.90;;;;;;5053588;28;20440;-72
2023/09/28 01:52:57;;;;;;;12.23;11.33;;;22.50;99.90;;;;;;5053677;28;20884;-73
2023/09/28 01:55:24;;;;;;;11.70;11.00;;;22.50;99.90;;;;;;5071190;22;20978;-73
2023/09/28 01:57:52;;;;;;;12.10;11.50;;;22.50;99.90;;;;;;5040538;28;20221;-73
2023/09/28 02:00:21;;;;;;;11.07;10.67;;;22.50;99.90;;;;;;5043468;28;20457;-73
2023/09/28 02:02:50;;;;;;;12.10;11.43;;;22.50;99.90;;;;;;5034520;28;20476;-73
2023/09/28 02:05:18;;;;;;;11.73;11.33;;;22.50;99.90;;;;;;5020657;28;20469;-71
2023/09/28 02:07:45;;;;;;;11.50;11.00;;;22.50;99.90;;;;;;5019724;28;21142;-71
2023/09/28 02:10:12;;;;;;;11.90;11.30;;;22.50;99.90;;;;;;5013425;28;20477;-71
2023/09/28 02:12:40;;;;;;;11.87;11.37;;;22.50;99.90;;;;;;5013371;28;20902;-71
2023/09/28 02:15:09;;;;;;;10.37;10.07;;;22.50;99.90;;;;;;5005020;28;20536;-71
2023/09/28 02:17:36;;;;;;;11.50;11.00;;;22.50;99.90;;;;;;5018216;28;20540;-71
2023/09/28 02:20:08;;;;;;;10.43;10.13;;;22.50;99.90;;;;;;5025179;28;20965;-71
2023/09/28 02:22:35;;;;;;;10.83;10.43;;;22.50;99.90;;;;;;5013252;28;20816;-71
2023/09/28 02:25:02;;;;;;;10.67;10.27;;;22.50;99.90;;;;;;5012640;28;20466;-71
2023/09/28 02:27:29;;;;;;;11.47;10.97;;;22.50;99.90;;;;;;5017250;28;20445;-71
2023/09/28 02:29:55;;;;;;;9.87;9.53;;;22.50;99.90;;;;;;5014534;28;20480;-71
2023/09/28 02:32:24;;;;;;;10.70;10.30;;;22.50;99.90;;;;;;5012978;28;20828;-71
2023/09/28 02:34:49;;;;;;;9.90;9.57;;;22.40;99.90;;;;;;5012580;28;20674;-71
2023/09/28 02:37:16;;;;;;;11.33;10.87;;;22.50;99.90;;;;;;5015226;28;20480;-70
2023/09/28 02:39:43;;;;;;;10.10;9.80;;;22.50;99.90;;;;;;5015963;28;20280;-71
2023/09/28 02:42:10;;;;;;;10.47;10.07;;;22.40;99.90;;;;;;5012799;28;20946;-71
2023/09/28 02:44:36;;;;;;;10.33;9.93;;;22.40;99.90;;;;;;5012548;28;20442;-71
2023/09/28 02:47:05;;;;;;;11.47;10.97;;;22.40;99.90;;;;;;5012774;28;20447;-71
2023/09/28 02:49:33;;;;;;;11.07;10.60;;;22.50;99.90;;;;;;5008027;28;20457;-71
2023/09/28 02:52:00;;;;;;;10.37;9.97;;;22.40;99.90;;;;;;5012522;28;20474;-71
2023/09/28 02:54:26;;;;;;;11.00;10.60;;;22.40;99.90;;;;;;5012321;28;20481;-71
2023/09/28 02:56:54;;;;;;;11.83;11.23;;;22.40;99.90;;;;;;5012191;28;20476;-71
2023/09/28 02:59:21;;;;;;;11.73;11.23;;;22.40;99.90;;;;;;5017788;28;20445;-71
2023/09/28 03:01:49;;;;;;;11.43;10.93;;;22.40;99.90;;;;;;5012333;28;20472;-71
2023/09/28 03:04:16;;;;;;;11.80;11.30;;;22.50;99.90;;;;;;5012405;28;20449;-71
2023/09/28 03:06:45;;;;;;;10.60;10.30;;;22.40;99.90;;;;;;5012068;28;20512;-71
2023/09/28 03:09:12;;;;;;;10.83;10.53;;;22.40;99.90;;;;;;5014822;28;20450;-71
2023/09/28 03:11:39;;;;;;;10.70;10.20;;;22.50;99.90;;;;;;5012190;28;20457;-71
2023/09/28 03:14:05;;;;;;;11.73;11.23;;;22.50;99.90;;;;;;5012028;28;20494;-71
2023/09/28 03:16:32;;;;;;;10.93;10.43;;;22.50;99.90;;;;;;5014046;28;20549;-70
2023/09/28 03:19:00;;;;;;;11.37;10.90;;;22.40;99.90;;;;;;5012100;28;20476;-71
2023/09/28 03:21:28;;;;;;;10.77;10.13;;;22.40;99.90;;;;;;5012148;28;20470;-71
2023/09/28 03:23:56;;;;;;;11.47;10.87;;;22.40;99.90;;;;;;5011996;28;20442;-71
2023/09/28 03:26:24;;;;;;;10.63;10.27;;;22.40;99.90;;;;;;5013940;28;20484;-71
2023/09/28 03:28:50;;;;;;;10.90;10.53;;;22.40;99.90;;;;;;5011583;28;20448;-71
2023/09/28 03:31:16;;;;;;;10.90;10.40;;;22.40;99.90;;;;;;5011897;28;20438;-71
2023/09/28 03:33:42;;;;;;;11.00;10.60;;;22.40;99.90;;;;;;5011879;28;20318;-70
2023/09/28 03:36:09;;;;;;;11.07;10.67;;;22.40;99.90;;;;;;5013584;28;20489;-71
2023/09/28 03:38:36;;;;;;;10.93;10.53;;;22.40;99.90;;;;;;5012056;28;20249;-71
2023/09/28 03:41:06;;;;;;;10.80;10.40;;;22.40;99.90;;;;;;5011696;28;20820;-70
2023/09/28 03:43:33;;;;;;;10.73;10.33;;;22.40;99.90;;;;;;5011685;28;20444;-70
2023/09/28 03:46:01;;;;;;;10.97;10.57;;;22.40;99.90;;;;;;5013066;28;20504;-71
2023/09/28 03:48:28;;;;;;;11.07;10.67;;;22.40;99.90;;;;;;5011841;28;20438;-70
2023/09/28 03:50:55;;;;;;;11.17;10.77;;;22.40;99.90;;;;;;5011879;28;20485;-70
2023/09/28 03:53:22;;;;;;;11.27;10.83;;;22.40;99.90;;;;;;5011592;28;20509;-71
2023/09/28 03:55:49;;;;;;;11.67;11.07;;;22.40;99.90;;;;;;5012783;28;20500;-70
2023/09/28 03:58:17;;;;;;;11.13;10.63;;;22.40;99.90;;;;;;5011569;28;20873;-71
2023/09/28 04:00:44;;;;;;;12.67;12.07;;;22.40;99.90;;;;;;5011537;28;20473;-70
2023/09/28 04:03:12;;;;;;;13.00;12.50;;;22.40;99.90;;;;;;5003612;28;20572;-72
2023/09/28 04:05:39;;;;;;;11.70;11.20;;;22.40;99.90;;;;;;5012158;28;20534;-72
2023/09/28 04:08:07;;;;;;;12.40;11.90;;;22.40;99.90;;;;;;5012025;28;20476;-72
2023/09/28 04:10:34;;;;;;;12.20;11.80;;;22.40;99.90;;;;;;5011384;28;20457;-71
2023/09/28 04:13:02;;;;;;;11.67;11.17;;;22.40;99.90;;;;;;5011423;28;20494;-71
2023/09/28 04:15:31;;;;;;;14.20;13.50;;;22.40;99.90;;;;;;5018142;28;20465;-72
2023/09/28 04:17:58;;;;;;;13.17;12.57;;;22.40;99.90;;;;;;5011473;28;20438;-72
2023/09/28 04:20:25;;;;;;;12.50;12.00;;;22.30;99.90;;;;;;5011492;28;20478;-71
2023/09/28 04:22:52;;;;;;;12.90;12.30;;;22.30;99.90;;;;;;5015207;28;20485;-70
2023/09/28 04:25:20;;;;;;;12.00;11.60;;;22.30;99.90;;;;;;5011200;28;20883;-71
2023/09/28 04:27:48;;;;;;;13.43;12.60;;;22.20;99.90;;;;;;5011242;28;20530;-70
2023/09/28 04:30:15;;;;;;;14.20;13.40;;;22.30;99.90;;;;;;5011325;28;20442;-71
2023/09/28 04:32:43;;;;;;;14.37;13.40;;;22.30;99.90;;;;;;5014273;28;20512;-69
2023/09/28 04:35:13;;;;;;;13.30;12.40;;;22.30;99.90;;;;;;5010969;28;20489;-68
2023/09/28 04:37:40;;;;;;;12.50;11.90;;;22.30;99.90;;;;;;5011258;28;20504;-68
2023/09/28 04:40:09;;;;;;;13.70;12.87;;;22.30;99.90;;;;;;5011202;28;20508;-68
2023/09/28 04:42:36;;;;;;;13.73;12.90;;;22.30;99.90;;;;;;5014454;28;20453;-68
2023/09/28 04:45:04;;;;;;;12.50;11.70;;;22.30;99.90;;;;;;5014586;28;20483;-68
2023/09/28 04:47:32;;;;;;;14.10;13.40;;;22.30;99.90;;;;;;5014815;28;21003;-68
2023/09/28 04:50:00;;;;;;;14.83;14.10;;;22.30;99.90;;;;;;5014807;28;20474;-68
2023/09/28 04:52:28;;;;;;;13.70;13.10;;;22.30;99.90;;;;;;5014479;28;20489;-68
2023/09/28 04:54:55;;;;;;;14.60;13.80;;;22.30;99.90;;;;;;5014017;28;20528;-68
2023/09/28 04:57:21;;;;;;;14.63;14.13;;;22.40;99.90;;;;;;5014586;28;20921;-70
2023/09/28 04:59:48;;;;;;;15.83;15.03;;;22.30;99.90;;;;;;5014423;28;20493;-70
2023/09/28 05:02:15;;;;;;;14.27;13.60;;;22.30;99.90;;;;;;5014305;28;20438;-70
2023/09/28 05:04:42;;;;;;;15.20;14.50;;;22.30;99.90;;;;;;5014127;28;20470;-70
2023/09/28 05:07:10;;;;;;;13.00;12.50;;;22.40;99.90;;;;;;5014192;28;20476;-70
2023/09/28 05:09:38;;;;;;;14.43;13.63;;;22.30;99.90;;;;;;5014463;28;20470;-71
2023/09/28 05:12:06;;;;;;;13.80;13.20;;;22.30;99.90;;;;;;5014085;28;20450;-70
2023/09/28 05:14:33;;;;;;;12.60;12.10;;;22.30;99.90;;;;;;5014058;28;20833;-70
2023/09/28 05:17:00;;;;;;;12.10;11.70;;;22.30;99.90;;;;;;5014183;28;20466;-70
2023/09/28 05:19:27;;;;;;;12.77;12.10;;;22.30;99.90;;;;;;5014469;28;20488;-70
2023/09/28 05:21:54;;;;;;;12.43;11.83;;;22.30;99.90;;;;;;5013895;28;20474;-70
2023/09/28 05:24:22;;;;;;;12.53;12.03;;;22.30;99.90;;;;;;5014002;28;20533;-70
2023/09/28 05:26:49;;;;;;;12.20;11.60;;;22.30;99.90;;;;;;5013579;28;20494;-71
2023/09/28 05:29:16;;;;;;;12.97;12.27;;;22.30;99.90;;;;;;5014182;28;20481;-70
2023/09/28 05:31:43;;;;;;;12.97;12.47;;;22.30;99.90;;;;;;5014049;28;20541;-71
2023/09/28 05:34:10;;;;;;;12.20;11.70;;;22.30;99.90;;;;;;5013686;28;20478;-71
2023/09/28 05:36:37;;;;;;;13.00;12.10;;;22.30;99.90;;;;;;5013605;28;20824;-70
2023/09/28 05:39:04;;;;;;;12.33;11.83;;;22.30;99.90;;;;;;5013732;28;20496;-70
2023/09/28 05:41:33;;;;;;;12.20;11.60;;;22.30;99.90;;;;;;5013819;28;20438;-70
2023/09/28 05:44:00;;;;;;;12.90;12.20;;;22.30;99.90;;;;;;5013697;28;20477;-70
2023/09/28 05:46:27;;;;;;;13.97;13.47;;;22.30;99.90;;;;;;5013468;28;20493;-69
2023/09/28 05:48:53;;;;;;;14.07;13.47;;;22.30;99.90;;;;;;5013478;28;20477;-68
2023/09/28 05:51:20;;;;;;;13.23;12.40;;;22.30;99.90;;;;;;5013526;28;20450;-69
2023/09/28 05:53:47;;;;;;;12.53;11.80;;;22.30;99.90;;;;;;5013109;28;20506;-69
2023/09/28 05:56:14;;;;;;;12.80;12.40;;;22.30;99.90;;;;;;5005225;28;20469;-69
2023/09/28 05:58:43;;;;;;;14.20;13.50;;;22.30;99.90;;;;;;5013668;28;20815;-69
2023/09/28 06:01:13;;;;;;;13.90;13.00;;;22.30;99.90;;;;;;5013455;28;20474;-69
2023/09/28 06:03:40;;;;;;;14.53;13.80;;;22.30;99.90;;;;;;5013555;28;20525;-69
2023/09/28 06:06:17;;;;;;;13.20;12.70;;;22.30;99.90;;;;;;5013148;28;20502;-68
2023/09/28 06:08:46;;;;;;;13.70;13.13;;;22.30;99.90;;;;;;5013297;28;20469;-69
2023/09/28 06:11:13;;;;;;;13.73;12.97;;;22.30;99.90;;;;;;5013048;28;20942;-68
2023/09/28 06:13:42;;;;;;;14.77;14.20;;;22.30;99.90;;;;;;5013077;28;20513;-68
2023/09/28 06:16:12;;;;;;;13.50;13.07;;;22.30;99.90;;;;;;5012962;28;20963;-68
2023/09/28 06:18:39;;;;;;;12.80;12.30;;;22.20;99.90;;;;;;5013053;28;20542;-68
2023/09/28 06:21:06;;;;;;;14.60;13.20;;;22.30;99.90;;;;;;5012893;28;20473;-68
2023/09/28 06:23:33;;;;;;;12.87;12.37;;;22.30;99.90;;;;;;5012991;28;20501;-68
2023/09/28 06:26:00;;;;;;;13.27;12.77;;;22.20;99.90;;;;;;5012489;28;20469;-68
2023/09/28 06:28:26;;;;;;;12.40;11.87;;;22.20;99.90;;;;;;5012949;28;20478;-68
2023/09/28 06:30:55;;;;;;;12.70;12.20;;;22.20;99.90;;;;;;5012635;28;20473;-69
2023/09/28 06:33:23;;;;;;;13.47;12.87;;;22.20;99.90;;;;;;5012978;28;20510;-70
2023/09/28 06:35:50;;;;;;;13.70;13.10;;;22.20;99.90;;;;;;5012612;28;20470;-70
2023/09/28 06:38:18;;;;;;;13.00;12.50;;;22.30;99.90;;;;;;5004879;28;20446;-70
2023/09/28 06:40:45;;;;;;;15.40;14.63;;;22.30;99.90;;;;;;5012812;28;20482;-70
2023/09/28 06:43:12;;;;;;;14.93;14.33;;;22.30;99.90;;;;;;5012539;28;20465;-70
2023/09/28 06:45:39;;;;;;;15.53;14.83;;;22.30;99.90;;;;;;5012372;28;20548;-70
2023/09/28 06:48:08;;;;;;;15.00;14.40;;;22.20;99.90;;;;;;5012435;28;20477;-70
2023/09/28 06:50:35;;;;;;;14.60;13.97;;;22.20;99.90;;;;;;5012383;28;20452;-70
2023/09/28 06:53:03;;;;;;;14.87;14.37;;;22.30;99.90;;;;;;5012298;28;20488;-70
2023/09/28 06:55:30;;;;;;;13.67;13.17;;;22.20;99.90;;;;;;5012043;28;20462;-70
2023/09/28 06:57:57;;;;;;;13.60;12.90;;;22.30;99.90;;;;;;5012398;28;20476;-70
2023/09/28 07:00:24;;;;;;;13.90;13.30;;;22.20;99.90;;;;;;5012472;28;20528;-70
2023/09/28 07:02:51;;;;;;;13.30;12.80;;;22.30;99.90;;;;;;5012291;28;20497;-71
2023/09/28 07:05:20;;;;;;;12.63;12.23;;;22.30;99.90;;;;;;5003411;28;21040;-71
2023/09/28 07:07:47;;;;;;;13.87;13.27;;;22.20;99.90;;;;;;5012451;28;20701;-71
2023/09/28 07:10:15;;;;;;;13.40;12.63;;;22.30;99.90;;;;;;5012027;28;20849;-70
2023/09/28 07:12:41;;;;;;;14.20;13.70;;;22.20;99.90;;;;;;5012250;28;20482;-70
2023/09/28 07:15:09;;;;;;;13.50;13.00;;;22.20;99.90;;;;;;5011621;28;20953;-70
2023/09/28 07:17:37;;;;;;;14.80;14.00;;;22.20;99.90;;;;;;5011952;28;20474;-70
2023/09/28 07:20:05;;;;;;;13.73;12.80;;;22.30;99.90;;;;;;5011923;28;20448;-71
2023/09/28 07:22:33;;;;;;;12.33;11.83;;;22.30;99.90;;;;;;5012066;28;20802;-71
2023/09/28 07:25:00;;;;;;;13.03;12.53;;;22.30;99.90;;;;;;5011483;28;20500;-71
2023/09/28 07:27:31;;;;;;;13.30;12.80;;;22.20;99.90;;;;;;5012015;28;20481;-71
2023/09/28 07:29:59;;;;;;;13.40;12.80;;;22.30;99.90;;;;;;5011741;28;20841;-71
2023/09/28 07:32:26;;;;;;;13.90;13.20;;;22.30;99.90;;;;;;5011837;28;20450;-71
2023/09/28 07:34:53;;;;;;;13.77;13.27;;;22.20;99.90;;;;;;5011338;28;20488;-71
2023/09/28 07:37:21;;;;;;;14.50;13.80;;;22.30;99.90;;;;;;5011782;28;20474;-71
2023/09/28 07:39:49;;;;;;;13.37;12.87;;;22.20;99.90;;;;;;5011755;28;20897;-70
2023/09/28 07:42:16;;;;;;;15.00;14.30;;;22.20;99.90;;;;;;5011626;28;20945;-70
2023/09/28 07:44:44;;;;;;;14.50;14.00;;;22.20;99.90;;;;;;5011358;28;20501;-71
2023/09/28 07:47:11;;;;;;;14.40;13.80;;;22.20;99.90;;;;;;5011595;28;20481;-71
2023/09/28 07:49:38;;;;;;;13.80;13.20;;;22.30;99.90;;;;;;5011673;28;20486;-71
2023/09/28 07:52:08;;;;;;;14.07;13.57;;;22.20;99.90;;;;;;5011728;28;20441;-70
2023/09/28 07:54:35;;;;;;;14.60;14.00;;;22.20;99.90;;;;;;5011490;28;20484;-70
2023/09/28 07:57:04;;;;;;;15.70;15.00;;;22.20;99.90;;;;;;5011924;28;20541;-70
2023/09/28 07:59:32;;;;;;;14.63;14.03;;;22.20;99.90;;;;;;5011528;28;20438;-70
2023/09/28 08:01:59;;;;;;;13.80;13.30;;;22.20;99.90;;;;;;5011276;28;20500;-70
2023/09/28 08:04:27;;;;;;;14.07;13.57;;;22.30;99.90;;;;;;5011254;28;20469;-71
2023/09/28 08:06:53;;;;;;;16.77;15.97;;;22.20;99.90;;;;;;5011485;28;20508;-71
2023/09/28 08:09:23;;;;;;;14.77;14.20;;;22.30;99.90;;;;;;5011353;28;20441;-71
2023/09/28 08:11:50;;;;;;;14.37;13.50;;;22.30;99.90;;;;;;5011564;28;20454;-70
2023/09/28 08:14:20;;;;;;;15.40;14.80;;;22.20;99.90;;;;;;5011098;28;20510;-70
2023/09/28 08:16:47;;;;;;;14.57;13.97;;;22.20;99.90;;;;;;5014791;28;20561;-70
2023/09/28 08:19:14;;;;;;;14.20;13.50;;;22.20;99.90;;;;;;5015367;28;20482;-70
2023/09/28 08:21:41;;;;;;;14.80;14.20;;;22.20;99.90;;;;;;5015393;28;20473;-70
2023/09/28 08:24:10;;;;;;;14.10;13.43;;;22.30;99.90;;;;;;5015082;28;20469;-70
2023/09/28 08:26:37;;;;;;;14.90;14.40;;;22.20;99.90;;;;;;5014882;28;20985;-70
2023/09/28 08:29:04;;;;;;;14.87;14.27;;;22.30;99.90;;;;;;5014966;28;20929;-70
2023/09/28 08:31:33;;;;;;;14.60;14.00;;;22.30;99.90;;;;;;5015066;28;20444;-70
2023/09/28 08:34:00;;;;;;;14.80;14.30;;;22.20;99.90;;;;;;5015081;28;21069;-70
2023/09/28 08:36:27;;;;;;;14.80;14.10;;;22.30;99.90;;;;;;5014847;28;20893;-70
2023/09/28 08:38:54;;;;;;;13.83;13.23;;;22.30;99.90;;;;;;5014953;28;20450;-70
2023/09/28 08:41:32;;;;;;;15.93;15.27;;;22.30;99.90;;;;;;5007062;28;20437;-70
2023/09/28 08:44:05;;;;;;;14.73;14.13;;;22.30;99.90;;;;;;5014745;28;20499;-70
2023/09/28 08:46:38;;;;;;;14.70;14.00;;;22.30;99.90;;;;;;5014648;28;20457;-70
2023/09/28 08:49:06;;;;;;;14.03;13.53;;;22.30;99.90;;;;;;5014686;28;20821;-70
2023/09/28 08:51:34;;;;;;;14.40;13.60;;;22.30;99.90;;;;;;5014669;28;20441;-71
2023/09/28 08:54:05;;;;;;;16.10;15.20;;;22.30;99.90;;;;;;5014500;28;20509;-70
2023/09/28 08:56:34;;;;;;;14.20;13.63;;;22.30;99.90;;;;;;5014345;28;20466;-70
2023/09/28 08:59:02;;;;;;;14.80;14.23;;;22.30;99.90;;;;;;5014615;28;20446;-70
2023/09/28 09:01:31;;;;;;;16.10;15.20;;;22.30;99.90;;;;;;5014585;28;20780;-71
2023/09/28 09:04:00;;;;;;;13.90;13.20;;;22.30;99.90;;;;;;5014407;28;20957;-71
2023/09/28 09:06:29;;;;;;;13.90;13.40;;;22.30;99.90;;;;;;5014239;28;20489;-71
2023/09/28 09:09:01;;;;;;;13.83;13.20;;;22.30;99.90;;;;;;5014377;28;20446;-71
2023/09/28 09:11:30;;;;;;;14.43;13.80;;;22.30;99.90;;;;;;5014322;28;20450;-71
2023/09/28 09:13:57;;;;;;;13.87;13.27;;;22.30;99.90;;;;;;5014167;28;21016;-71
2023/09/28 09:16:26;;;;;;;14.00;13.43;;;22.30;99.90;;;;;;5014038;28;20493;-71
2023/09/28 09:18:54;;;;;;;13.47;12.80;;;22.30;99.90;;;;;;5014220;28;20532;-71
2023/09/28 09:21:23;;;;;;;18.33;17.43;;;22.30;99.90;;;;;;5014042;28;21010;-70
2023/09/28 09:24:02;;;;;;;14.10;13.60;;;22.30;99.90;;;;;;5014283;28;20868;-70
2023/09/28 09:26:30;;;;;;;14.80;14.00;;;22.30;99.90;;;;;;5006228;28;20461;-70
2023/09/28 09:29:00;;;;;;;14.00;13.40;;;22.30;99.90;;;;;;5013786;28;20481;-70
2023/09/28 09:31:27;;;;;;;14.53;13.57;;;22.40;99.90;;;;;;5021668;28;20957;-69
2023/09/28 09:33:54;;;;;;;13.77;13.07;;;22.40;99.90;;;;;;5022406;28;20923;-70
2023/09/28 09:36:22;;;;;;;13.23;12.47;;;22.40;99.90;;;;;;5017319;28;20535;-69
2023/09/28 09:38:50;;;;;;;13.90;13.20;;;22.40;99.90;;;;;;5015205;28;20449;-68
2023/09/28 09:41:17;;;;;;;13.40;12.00;;;22.40;99.90;;;;;;5029082;28;20457;-71
2023/09/28 09:43:44;;;;;;;13.73;12.90;;;22.40;99.90;;;;;;5008698;28;20481;-69
2023/09/28 09:46:13;;;;;;;12.93;12.33;;;22.40;99.90;;;;;;5017184;28;20477;-72
2023/09/28 09:48:42;;;;;;;12.70;12.20;;;22.40;99.90;;;;;;5018892;28;20454;-69
2023/09/28 09:51:11;;;;;;;13.13;12.10;;;22.40;99.90;;;;;;5020293;28;20478;-71
2023/09/28 09:53:41;;;;;;;13.27;12.67;;;22.40;99.90;;;;;;5018771;28;20464;-74
2023/09/28 09:56:09;;;;;;;13.00;12.40;;;22.40;99.90;;;;;;5014963;28;20545;-72
2023/09/28 09:58:39;;;;;;;11.33;10.83;;;22.50;99.90;;;;;;5019991;28;20482;-68
2023/09/28 10:01:12;;;;;;;11.60;11.00;;;22.50;99.90;;;;;;5013341;28;20803;-71
2023/09/28 10:03:42;;;;;;;11.60;11.10;;;22.50;99.90;;;;;;5013669;28;20450;-70
2023/09/28 10:06:15;;;;;;;12.00;11.40;;;22.40;99.90;;;;;;5014249;28;20470;-75
2023/09/28 10:08:43;;;;;;;11.60;10.97;;;22.50;99.90;;;;;;5019109;28;20573;-72
2023/09/28 10:11:12;;;;;;;11.20;10.70;;;22.50;99.90;;;;;;5013329;28;20450;-75
2023/09/28 10:13:39;;;;;;;11.63;11.03;;;22.50;99.90;;;;;;5013604;28;20481;-71
2023/09/28 10:16:09;;;;;;;12.03;11.13;;;22.50;99.90;;;;;;5016889;28;20488;-72
2023/09/28 10:18:37;;;;;;;12.20;11.20;;;22.50;99.90;;;;;;5013115;28;20470;-72
2023/09/28 10:21:05;;;;;;;11.73;10.70;;;22.50;99.90;;;;;;5011018;28;20473;-71
2023/09/28 10:23:31;;;;;;;10.60;10.10;;;22.50;99.90;;;;;;5011050;28;20438;-71
2023/09/28 10:26:06;;;;;;;11.07;10.50;;;22.60;99.90;;;;;;5012176;28;20570;-71
2023/09/28 10:28:34;;;;;;;11.47;10.77;;;22.60;99.90;;;;;;5006257;28;20445;-71
2023/09/28 10:31:19;;;;;;;11.57;11.13;;;22.60;99.90;;;;;;5012684;28;20445;-72
2023/09/28 10:33:59;;;;;;;11.67;11.07;;;22.60;99.90;;;;;;5012811;28;20449;-71
2023/09/28 10:36:27;;;;;;;11.47;11.00;;;22.60;99.90;;;;;;5004871;28;20544;-71
2023/09/28 10:39:14;;;;;;;12.20;11.60;;;22.60;99.90;;;;;;5012659;28;21004;-71
2023/09/28 10:41:45;;;;;;;12.27;11.67;;;22.60;99.90;;;;;;5007006;28;20481;-71
2023/09/28 10:44:17;;;;;;;11.77;11.10;;;22.60;99.90;;;;;;5012723;28;20533;-71
2023/09/28 10:46:47;;;;;;;12.70;11.47;;;22.60;99.90;;;;;;5012391;28;20465;-71
2023/09/28 10:49:15;;;;;;;11.70;11.07;;;22.60;99.90;;;;;;5012363;28;20446;-71
2023/09/28 10:51:42;;;;;;;12.17;11.40;;;22.60;99.90;;;;;;5012407;28;20438;-71
2023/09/28 10:54:10;;;;;;;12.33;11.83;;;22.60;99.90;;;;;;5012454;28;20442;-72
2023/09/28 10:56:37;;;;;;;12.03;11.60;;;22.60;99.90;;;;;;5012143;28;20473;-71
2023/09/28 10:59:07;;;;;;;13.60;12.70;;;22.60;99.90;;;;;;5012256;28;20477;-71
2023/09/28 11:01:39;;;;;;;12.27;11.70;;;22.60;99.90;;;;;;5012219;28;20536;-71
2023/09/28 11:04:06;;;;;;;11.30;10.90;;;22.60;99.90;;;;;;5012183;28;20935;-71
2023/09/28 11:06:33;;;;;;;13.43;12.73;;;22.60;99.90;;;;;;5011987;28;20532;-71
2023/09/28 11:09:01;;;;;;;12.90;12.30;;;22.60;99.90;;;;;;5012047;28;20489;-71
2023/09/28 11:11:28;;;;;;;12.10;11.47;;;22.60;99.90;;;;;;5012274;28;20508;-71
2023/09/28 11:13:57;;;;;;;13.00;12.30;;;22.60;99.90;;;;;;5012143;28;20473;-71
2023/09/28 11:16:26;;;;;;;12.83;12.33;;;22.70;99.90;;;;;;5011695;28;20997;-71
2023/09/28 11:18:55;;;;;;;12.30;11.53;;;22.70;99.90;;;;;;5012084;28;20447;-71
2023/09/28 11:21:23;;;;;;;12.30;11.87;;;22.70;99.90;;;;;;5011823;28;20466;-71
2023/09/28 11:23:52;;;;;;;15.07;14.27;;;22.70;99.90;;;;;;5012036;28;20474;-71
2023/09/28 11:26:19;;;;;;;13.00;12.23;;;22.60;99.90;;;;;;5011607;28;20462;-71
2023/09/28 11:28:47;;;;;;;13.23;12.53;;;22.60;99.90;;;;;;5011930;28;20438;-71
2023/09/28 11:31:15;;;;;;;13.10;12.50;;;22.60;99.90;;;;;;5011799;28;20953;-71
2023/09/28 11:33:45;;;;;;;12.50;11.97;;;22.60;99.90;;;;;;5011883;28;20446;-71
2023/09/28 11:36:15;;;;;;;12.80;12.30;;;22.70;99.90;;;;;;5011445;28;20513;-71
2023/09/28 11:38:42;;;;;;;14.17;13.10;;;22.60;99.90;;;;;;5011728;28;20843;-71
2023/09/28 11:41:09;;;;;;;12.77;12.27;;;22.70;99.90;;;;;;5011565;28;20481;-71
2023/09/28 11:43:45;;;;;;;11.97;11.57;;;22.60;99.90;;;;;;5011810;28;20470;-71
2023/09/28 11:46:12;;;;;;;14.73;13.87;;;22.70;99.90;;;;;;5011453;28;20472;-71
2023/09/28 11:48:39;;;;;;;13.13;12.37;;;22.60;99.90;;;;;;5011730;28;20626;-71
2023/09/28 11:51:08;;;;;;;12.60;12.00;;;22.60;99.90;;;;;;5011146;28;20511;-71
2023/09/28 11:53:40;;;;;;;12.87;12.30;;;22.70;99.90;;;;;;5011699;28;20458;-71
2023/09/28 11:56:07;;;;;;;12.20;11.73;;;22.70;99.90;;;;;;5010943;28;20488;-71
2023/09/28 11:58:34;;;;;;;11.67;11.07;;;22.70;99.90;;;;;;5011583;28;20481;-71
2023/09/28 12:01:02;;;;;;;12.13;11.47;;;22.70;99.90;;;;;;5011427;28;20448;-71
2023/09/28 12:03:29;;;;;;;11.77;11.00;;;22.70;99.90;;;;;;5003631;28;20453;-71
2023/09/28 12:05:57;;;;;;;11.63;11.03;;;22.70;99.90;;;;;;5011209;28;21059;-71
2023/09/28 12:08:25;;;;;;;13.40;12.50;;;22.70;99.90;;;;;;5011261;28;20449;-71
2023/09/28 12:10:52;;;;;;;11.10;10.70;;;22.70;99.90;;;;;;5011361;28;20511;-71
2023/09/28 12:13:22;;;;;;;11.33;10.90;;;22.70;99.90;;;;;;5011354;28;20481;-71
2023/09/28 12:15:49;;;;;;;11.20;10.70;;;22.80;99.90;;;;;;5010950;28;20489;-71
2023/09/28 12:18:15;;;;;;;11.63;11.23;;;22.80;99.90;;;;;;5011170;28;20449;-72
2023/09/28 12:20:42;;;;;;;12.17;11.47;;;22.80;99.90;;;;;;5011384;28;20474;-71
2023/09/28 12:23:09;;;;;;;11.43;10.83;;;22.80;99.90;;;;;;5011195;28;20951;-72
2023/09/28 12:25:38;;;;;;;12.30;11.80;;;22.80;99.90;;;;;;5010967;28;20458;-71
2023/09/28 12:28:06;;;;;;;13.33;12.63;;;22.80;99.90;;;;;;5011151;28;20512;-71
2023/09/28 12:30:33;;;;;;;12.67;11.77;;;22.80;99.90;;;;;;5011241;28;20504;-71
2023/09/28 12:33:01;;;;;;;12.40;11.87;;;22.80;99.90;;;;;;5011221;28;20477;-71